• Join FlightAware (Why Join?)
  • Login
  • US Flag 
12:52AM EST


 

Airport Tracker/Info


-or-


 

Live Flight TrackerFlight Track Log ✈ N8299W ✈ 16-Sep-2013 ✈ W29 - KFRG

Flight Track Log - Related Links

Times and Time Zones

All times are in EDT time to prevent confusion due to time zone crossing. See the N8299W flight status page for this flight to view local times or setup timezone preferences in your user account.

Time Position Orientation Groundspeed Altitude Reporting Facility
EDT Latitude Longitude Course Direction KTS MPH feet Rate Location/Type
05:53PM 38.9833 -76.2333 57° Northeast 135 155 4,200  Level Potomac TRACON
05:54PM 39.0167 -76.2000 38° Northeast 123 142 5,000 660 Climbing Potomac TRACON
05:55PM 39.0333 -76.1667 57° Northeast 132 152 5,600 240 Climbing Potomac TRACON
05:57PM 39.0667 -76.1167 49° Northeast 158 182 5,600 -60 Level Potomac TRACON
05:58PM 39.1342 -76.0782 50° Northeast  Level Estimated
05:58PM 39.0833 -76.0833 57° Northeast 162 186 5,500  Level Potomac TRACON
05:59PM 39.1167 -76.0333 49° Northeast 161 185 5,500  Level Potomac TRACON
06:00PM 39.1667 -75.9500 52° Northeast 162 186 5,500  Level Philadelphia TRACON
06:01PM 39.2000 -75.9167 38° Northeast 161 185 5,500  Level Philadelphia TRACON
06:02PM 39.2333 -75.8667 49° Northeast 157 181 5,500  Level Philadelphia TRACON
06:03PM 39.2500 -75.8167 67° East 159 183 5,500  Level Philadelphia TRACON
06:05PM 39.2879 -75.7694 44° Northeast  Level FlightAware Approximate
06:05PM 39.3000 -75.7333 44° Northeast 158 182 5,500  Level Philadelphia TRACON
06:06PM 39.3333 -75.6833 49° Northeast 158 182 5,500  Level Philadelphia TRACON
06:08PM 39.3667 -75.6333 49° Northeast 156 180 5,500  Level Philadelphia TRACON
06:08PM 39.3833 -75.6000 57° Northeast 157 181 5,500  Level Philadelphia TRACON
06:09PM 39.4167 -75.5667 38° Northeast 157 181 5,500 -240 Level Philadelphia TRACON
06:10PM 39.4500 -75.5167 49° Northeast 165 190 5,100 -480 Descending Philadelphia TRACON
06:11PM 39.4833 -75.4667 49° Northeast 165 190 4,600 -540 Descending Philadelphia TRACON
06:12PM 39.5000 -75.4167 67° East 161 185 4,100 -480 Descending Philadelphia TRACON
06:13PM 39.5333 -75.3833 38° Northeast 156 180 3,700 -240 Descending Philadelphia TRACON
06:14PM 39.5667 -75.3333 49° Northeast 153 176 3,600 -60 Descending Philadelphia TRACON
06:15PM 39.6000 -75.3000 38° Northeast 152 175 3,600  Level Philadelphia TRACON
06:16PM 39.6333 -75.2500 49° Northeast 152 175 3,600  Level Philadelphia TRACON
06:17PM 39.6500 -75.2167 57° Northeast 150 173 3,600  Level Philadelphia TRACON
06:18PM 39.6833 -75.1833 38° Northeast 149 171 3,600  Level Philadelphia TRACON
06:19PM 39.7000 -75.1500 57° Northeast 150 173 3,600  Level Philadelphia TRACON
06:20PM 39.7333 -75.1000 49° Northeast 151 174 3,600  Level Philadelphia TRACON
06:21PM 39.7500 -75.0667 57° Northeast 150 173 3,600  Level Philadelphia TRACON
06:22PM 39.7833 -75.0167 49° Northeast 151 174 3,600  Level Philadelphia TRACON
06:24PM 39.8126 -74.9547 58° Northeast  Level FlightAware Approximate
06:31PM 39.9800 -74.6320 51° Northeast  Level FlightAware Approximate
06:32PM 40.0067 -74.5890 51° Northeast  Level FlightAware Approximate
06:32PM 40.1000 -74.7000 51° Northeast 147 169 3,600  Level New York TRACON
06:33PM 40.0335 -74.5459 51° Northeast  Level FlightAware Approximate
06:33PM 40.1333 -74.6667 37° Northeast 147 169 3,600  Level New York TRACON
06:34PM 40.0603 -74.5029 51° Northeast  Level FlightAware Approximate
06:34PM 40.1667 -74.6333 37° Northeast 149 171 3,600  Level New York TRACON
06:35PM 40.0870 -74.4597 51° Northeast  Level FlightAware Approximate
06:35PM 40.1833 -74.5833 66° East 153 176 3,600  Level New York TRACON
06:36PM 40.1138 -74.4166 51° Northeast  Level FlightAware Approximate
06:36PM 40.2167 -74.5333 49° Northeast 154 177 3,600  Level New York TRACON
06:37PM 40.1405 -74.3734 51° Northeast  Level FlightAware Approximate
06:37PM 40.2333 -74.4833 66° East 157 181 3,600  Level New York TRACON
06:38PM 40.1672 -74.3302 51° Northeast  Level FlightAware Approximate
06:38PM 40.2500 -74.4500 57° Northeast 151 174 3,600  Level New York TRACON
06:39PM 40.2667 -74.4000 66° East 152 175 3,600  Level New York TRACON
06:40PM 40.3000 -74.3500 49° Northeast 157 181 3,600 -300 Level New York TRACON
06:41PM 40.3167 -74.2833 72° East 164 189 3,100 -420 Descending New York TRACON
06:42PM 40.3333 -74.2333 66° East 159 183 2,800 -300 Descending New York TRACON
06:43PM 40.3667 -74.2000 37° Northeast 158 182 2,500 -240 Descending New York TRACON
06:44PM 40.3833 -74.1500 66° East 156 180 2,400 -300 Descending New York TRACON
06:45PM 40.4167 -74.1000 49° Northeast 163 188 2,000 -540 Descending New York TRACON
06:46PM 40.4333 -74.0500 66° East 160 184 1,400 -480 Descending New York TRACON
06:47PM 40.4667 -74.0167 37° Northeast 154 177 1,100 -360 Descending New York TRACON
06:48PM 40.4833 -73.9667 66° East 155 178 800 -300 Descending New York TRACON
06:49PM 40.5167 -73.9333 37° Northeast 153 176 600 -240 Descending New York TRACON
06:50PM 40.5500 -73.8833 49° Northeast 148 170 400 -120 Descending New York TRACON
06:51PM 40.5667 -73.8500 57° Northeast 144 166 400  Level New York TRACON
06:52PM 40.5833 -73.7833 72° East 148 170 400  Level New York TRACON
06:53PM 40.5667 -73.7333 114° Southeast 149 171 400  Level New York TRACON
06:54PM 40.5667 -73.6833 90° East 152 175 400  Level New York TRACON
06:55PM 40.5667 -73.6167 90° East 150 173 400  Level New York TRACON
06:57PM 40.6070 -73.5586 48° Northeast  Level FlightAware Approximate
07:04PM 40.7167 -73.4000 60° Northeast  Level FlightAware Approximate
07:05PM 40.7288 -73.4134 60° Northeast  Level Estimated
07:06PM 40.7288 -73.4134 60° Northeast  Level Estimated
07:07PM 40.7288 -73.4134 60° Northeast  Level Estimated